Terminal Aerodrome Forecast
Issued by NWS

Home | Current Version | Previous Version | Text Only | Print | Product List | Glossary On
Versions: 1 2 3 4 5 6 7 8 9 10 11 12 13
000
FTUS46 KPDT 211100
TAFRDM
TAF
KRDM 211120Z 2112/2212 17005KT P6SM BKN120
     FM211500 VRB06KT P6SM OVC080
     FM212200 32010KT P6SM -SHRA OVC060
     FM220100 32009KT P6SM -RA OVC040
     FM220600 29007KT P6SM -RA OVC025=

USA.gov is the U.S. government's official web portal to all federal, state and local government web resources and services.